Time;durP1;ratioP1;P1;durP2;ratioP2;P2;SDS_P1;SDS_P2;PMS_P1;PMS_P2;Temp;Humidity;BMP_temperature;BMP_pressure;BME280_temperature;BME280_humidity;BME280_pressure;Samples;Min_cycle;Max_cycle;Signal;HPM_P1;HPM_P2
2024/01/11 09:06:06;;;;;;;11.00;7.10;;;;;;;11.43;32.72;101233.09;103027;1282;614093;-57
2024/01/11 09:08:33;;;;;;;9.60;7.10;;;;;;;10.44;31.53;101242.54;104584;1266;60181;-57
2024/01/11 09:11:00;;;;;;;9.70;6.70;;;;;;;9.69;31.35;101240.79;105509;1255;60181;-58
2024/01/11 09:13:28;;;;;;;10.80;7.30;;;;;;;9.05;31.38;101235.93;105592;1258;72290;-55
2024/01/11 09:15:55;;;;;;;14.20;8.20;;;;;;;8.52;31.56;101234.30;105426;1256;72949;-57
2024/01/11 09:18:22;;;;;;;11.40;7.60;;;;;;;8.09;31.84;101233.55;105241;1258;265640;-56
2024/01/11 09:20:49;;;;;;;12.60;7.40;;;;;;;7.70;32.01;101232.61;105599;1253;60423;-55
2024/01/11 09:23:18;;;;;;;10.50;7.00;;;;;;;7.38;32.26;101241.30;105721;1256;60960;-54
2024/01/11 09:25:45;;;;;;;10.60;7.60;;;;;;;7.10;32.56;101240.91;105663;1253;71428;-55
2024/01/11 09:28:12;;;;;;;11.80;7.20;;;;;;;6.86;32.73;101237.44;105688;1252;73104;-54
2024/01/11 09:30:40;;;;;;;12.70;7.20;;;;;;;6.63;32.83;101237.25;105677;1253;72863;-58
2024/01/11 09:33:06;;;;;;;12.20;7.30;;;;;;;6.43;33.09;101232.91;105643;1256;59618;-56
2024/01/11 09:35:34;;;;;;;11.20;7.20;;;;;;;6.28;33.19;101227.60;105588;1253;60361;-58
2024/01/11 09:38:01;;;;;;;9.30;6.70;;;;;;;6.15;33.41;101217.80;105549;1255;73165;-60
2024/01/11 09:40:28;;;;;;;10.30;7.10;;;;;;;6.04;33.58;101215.86;105711;1253;72555;-58
2024/01/11 09:42:57;;;;;;;16.40;7.70;;;;;;;5.96;33.72;101208.05;105293;1259;73173;-57
2024/01/11 09:45:24;;;;;;;10.90;6.60;;;;;;;5.89;34.29;101207.73;105655;1253;59616;-56
2024/01/11 09:47:52;;;;;;;16.70;6.80;;;;;;;5.85;35.72;101207.80;105299;1253;60357;-58
2024/01/11 09:50:21;;;;;;;10.90;6.70;;;;;;;5.83;35.96;101199.94;105367;1260;73828;-57
2024/01/11 09:52:49;;;;;;;13.00;6.90;;;;;;;5.80;35.72;101199.38;105535;1260;72866;-59
2024/01/11 09:55:17;;;;;;;9.50;6.20;;;;;;;5.78;35.35;101183.84;105575;1253;73177;-61
2024/01/11 09:57:46;;;;;;;9.10;6.20;;;;;;;5.75;35.12;101176.12;105580;1256;60398;-57
2024/01/11 10:00:16;;;;;;;11.30;6.40;;;;;;;5.73;34.88;101172.08;105373;1253;59807;-64
2024/01/11 10:02:46;;;;;;;9.70;6.00;;;;;;;5.71;34.58;101164.20;105536;1255;73156;-63
2024/01/11 10:05:16;;;;;;;10.10;5.90;;;;;;;5.70;34.30;101160.70;105498;1253;72336;-62
2024/01/11 10:07:46;;;;;;;11.50;6.20;;;;;;;5.67;34.09;101154.05;105637;1253;72541;-61
2024/01/11 10:10:16;;;;;;;9.50;6.00;;;;;;;5.66;34.10;101153.14;105692;1253;60036;-62
2024/01/11 10:12:43;;;;;;;8.80;5.40;;;;;;;5.65;33.91;101151.40;105447;1252;60090;-62
2024/01/11 10:15:11;;;;;;;8.30;6.10;;;;;;;5.63;33.65;101152.92;105567;1256;72873;-60
2024/01/11 10:17:42;;;;;;;10.90;6.20;;;;;;;5.61;33.49;101147.85;105597;1257;72827;-64
2024/01/11 10:20:14;;;;;;;9.10;5.80;;;;;;;5.59;33.29;101138.41;105477;1253;71548;-65
2024/01/11 10:22:46;;;;;;;9.80;5.50;;;;;;;5.57;33.09;101125.66;105587;1252;59588;-65
2024/01/11 10:25:14;;;;;;;10.00;4.90;;;;;;;5.55;33.04;101125.98;105568;1253;60524;-62
2024/01/11 10:27:42;;;;;;;9.30;5.30;;;;;;;5.56;33.14;101123.90;105522;1258;72843;-62
2024/01/11 10:30:12;;;;;;;8.60;5.60;;;;;;;5.56;32.94;101104.77;105543;1253;72068;-60
2024/01/11 10:32:40;;;;;;;10.70;6.10;;;;;;;5.57;32.72;101106.52;105149;1257;72844;-62
2024/01/11 10:35:08;;;;;;;10.80;5.60;;;;;;;5.56;32.64;101096.94;105206;1253;59734;-63
2024/01/11 10:37:35;;;;;;;10.30;5.70;;;;;;;5.56;32.49;101088.06;105491;1256;60815;-62
2024/01/11 10:40:10;;;;;;;12.30;5.30;;;;;;;5.56;32.41;101082.14;105382;1262;72695;-63
2024/01/11 10:42:42;;;;;;;8.30;4.80;;;;;;;5.56;32.41;101078.48;105549;1259;71533;-64
2024/01/11 10:45:19;;;;;;;11.00;4.80;;;;;;;5.55;32.38;101073.79;105321;1253;72214;-63
2024/01/11 10:48:07;;;;;;;7.30;5.10;;;;;;;5.55;32.24;101065.25;105299;1252;59681;-61
2024/01/11 10:50:35;;;;;;;10.80;5.20;;;;;;;5.56;32.32;101060.74;105219;1257;60354;-61
2024/01/11 10:53:04;;;;;;;11.10;5.90;;;;;;;5.58;32.33;101051.73;105647;1253;73158;-62
2024/01/11 10:55:33;;;;;;;21.70;6.10;;;;;;;5.59;32.31;101054.70;105387;1253;74079;-62
2024/01/11 10:58:01;;;;;;;9.20;5.40;;;;;;;5.62;32.38;101047.27;105474;1252;72690;-62
2024/01/11 11:00:29;;;;;;;10.00;5.30;;;;;;;5.65;32.25;101039.49;105507;1259;59770;-62
2024/01/11 11:02:59;;;;;;;8.40;5.00;;;;;;;5.67;32.09;101030.48;105256;1260;61297;-62
2024/01/11 11:05:30;;;;;;;7.90;5.10;;;;;;;5.69;32.16;101026.33;105782;1253;73788;-61
2024/01/11 11:07:59;;;;;;;9.20;5.50;;;;;;;5.71;32.11;101019.39;105530;1253;72706;-63
2024/01/11 11:10:27;;;;;;;9.30;5.10;;;;;;;5.73;32.10;101020.13;105474;1258;72889;-62
2024/01/11 11:12:56;;;;;;;8.50;4.80;;;;;;;5.77;32.32;101019.14;105193;1253;59730;-61
2024/01/11 11:15:24;;;;;;;11.80;5.20;;;;;;;5.80;32.31;101016.24;105496;1253;60693;-62
2024/01/11 11:17:52;;;;;;;8.40;5.10;;;;;;;5.84;32.15;101007.41;105643;1257;73518;-59
2024/01/11 11:20:20;;;;;;;8.80;5.40;;;;;;;5.84;31.90;101005.16;105581;1253;72484;-59
2024/01/11 11:22:56;;;;;;;8.30;5.10;;;;;;;5.84;31.67;101000.45;105256;1253;73711;-60
2024/01/11 11:25:25;;;;;;;8.20;5.40;;;;;;;5.83;31.53;100997.65;105468;1253;60424;-57
2024/01/11 11:27:53;;;;;;;11.00;5.30;;;;;;;5.82;31.52;100990.85;105593;1253;59660;-60
2024/01/11 11:30:20;;;;;;;12.60;5.00;;;;;;;5.81;31.54;101000.41;105413;1260;73298;-59
2024/01/11 11:32:48;;;;;;;7.80;4.70;;;;;;;5.82;31.48;100994.16;106014;1257;73578;-62
2024/01/11 11:35:19;;;;;;;6.60;4.70;;;;;;;5.80;31.44;100997.98;105579;1253;73538;-64
2024/01/11 11:37:46;;;;;;;9.00;5.60;;;;;;;5.80;31.43;100986.46;105543;1253;60784;-59
2024/01/11 11:40:13;;;;;;;8.70;4.80;;;;;;;5.80;31.99;100985.78;105530;1258;60091;-60
2024/01/11 11:42:40;;;;;;;8.20;4.30;;;;;;;5.83;34.38;100975.19;105578;1258;72698;-61
2024/01/11 11:45:11;;;;;;;8.90;4.90;;;;;;;5.86;34.40;100967.41;105400;1253;72565;-62
2024/01/11 11:47:38;;;;;;;11.70;4.40;;;;;;;5.89;33.81;100958.04;105317;1253;73001;-61
2024/01/11 11:50:10;;;;;;;6.30;4.10;;;;;;;5.90;33.19;100946.23;105563;1259;60496;-64
2024/01/11 11:52:39;;;;;;;9.60;5.10;;;;;;;5.92;32.73;100946.60;105256;1253;60685;-65
2024/01/11 11:55:07;;;;;;;8.20;5.00;;;;;;;5.94;32.42;100945.93;105477;1254;72035;-62
2024/01/11 11:57:37;;;;;;;8.40;4.50;;;;;;;5.94;32.23;100940.20;105511;1253;71415;-61
2024/01/11 12:00:06;;;;;;;7.40;4.60;;;;;;;5.95;32.51;100937.42;105200;1256;72302;-59
2024/01/11 12:02:39;;;;;;;7.30;4.50;;;;;;;5.97;33.38;100934.52;105412;1253;59742;-58
2024/01/11 12:05:08;;;;;;;8.60;4.70;;;;;;;5.99;33.36;100936.45;105285;1255;59956;-60
2024/01/11 12:07:40;;;;;;;9.50;5.30;;;;;;;6.03;33.13;100934.05;105538;1257;71068;-62
2024/01/11 12:10:07;;;;;;;7.70;5.10;;;;;;;6.05;32.78;100929.23;105530;1253;72233;-61
2024/01/11 12:12:35;;;;;;;7.30;4.60;;;;;;;6.06;32.41;100930.99;105197;1255;73327;-59
2024/01/11 12:15:04;;;;;;;8.70;4.90;;;;;;;6.07;32.27;100925.59;105187;1257;60439;-61
2024/01/11 12:17:32;;;;;;;7.10;4.40;;;;;;;6.07;32.20;100924.04;105536;1253;59635;-59
2024/01/11 12:20:00;;;;;;;8.20;5.10;;;;;;;6.08;32.11;100924.74;105588;1257;73094;-60
2024/01/11 12:22:27;;;;;;;7.80;4.70;;;;;;;6.10;32.09;100920.76;105525;1256;73023;-62
2024/01/11 12:24:54;;;;;;;9.30;5.30;;;;;;;6.12;32.09;100923.39;105305;1253;72854;-59
2024/01/11 12:27:21;;;;;;;10.30;4.80;;;;;;;6.12;32.05;100918.87;105570;1253;59720;-63
2024/01/11 12:29:49;;;;;;;7.20;4.40;;;;;;;6.14;32.00;100911.39;105231;1259;59786;-60
2024/01/11 12:32:25;;;;;;;8.70;4.60;;;;;;;6.17;32.06;100915.27;105176;1253;73159;-60
2024/01/11 12:34:53;;;;;;;7.40;4.80;;;;;;;6.20;32.03;100914.45;105404;1253;71914;-59
2024/01/11 12:37:20;;;;;;;9.80;5.20;;;;;;;6.23;31.88;100907.00;105399;1254;72901;-59
2024/01/11 12:39:47;;;;;;;6.60;4.40;;;;;;;6.25;31.86;100894.30;104999;1260;60114;-59
2024/01/11 12:42:14;;;;;;;8.50;4.70;;;;;;;6.28;31.86;100900.60;105408;1259;59961;-61
2024/01/11 12:44:42;;;;;;;7.70;4.50;;;;;;;6.31;31.80;100888.80;105273;1252;72768;-60
2024/01/11 12:47:09;;;;;;;5.60;4.20;;;;;;;6.34;31.64;100879.77;105028;1253;72733;-62
2024/01/11 12:49:37;;;;;;;6.10;4.10;;;;;;;6.36;31.63;100877.02;105401;1256;72499;-59
2024/01/11 12:52:04;;;;;;;5.50;4.00;;;;;;;6.38;31.52;100868.66;105137;1254;59698;-59
2024/01/11 12:54:34;;;;;;;6.70;4.40;;;;;;;6.40;31.52;100854.73;104950;1254;61353;-59
2024/01/11 12:57:02;;;;;;;4.90;4.20;;;;;;;6.42;31.46;100845.70;105150;1259;73982;-59
2024/01/11 12:59:29;;;;;;;6.80;3.90;;;;;;;6.43;31.38;100846.23;104961;1260;73748;-58
2024/01/11 13:01:57;;;;;;;6.30;4.50;;;;;;;6.43;31.33;100838.93;104449;1262;73109;-59
2024/01/11 13:04:24;;;;;;;7.10;4.40;;;;;;;6.42;31.43;100837.52;105313;1257;60552;-60
2024/01/11 13:06:53;;;;;;;6.40;4.20;;;;;;;6.40;31.43;100828.96;105029;1258;60913;-59
2024/01/11 13:09:20;;;;;;;6.10;4.50;;;;;;;6.39;31.46;100825.98;105120;1255;71572;-60
2024/01/11 13:11:48;;;;;;;5.10;3.90;;;;;;;6.39;31.64;100824.23;104762;1253;73877;-60
2024/01/11 13:14:19;;;;;;;5.50;4.00;;;;;;;6.39;31.77;100816.58;104983;1257;74141;-59
2024/01/11 13:16:46;;;;;;;8.50;4.70;;;;;;;6.39;31.87;100810.48;105249;1257;60549;-60
2024/01/11 13:19:13;;;;;;;7.30;4.70;;;;;;;6.40;31.92;100805.42;104848;1260;60480;-62
2024/01/11 13:21:53;;;;;;;5.50;4.00;;;;;;;6.41;31.97;100801.26;105212;1259;74505;-61
2024/01/11 13:24:20;;;;;;;5.40;4.00;;;;;;;6.40;32.06;100796.20;105361;1259;72025;-60
2024/01/11 13:26:47;;;;;;;7.50;4.20;;;;;;;6.40;32.16;100796.55;105298;1258;73052;-59
2024/01/11 13:29:14;;;;;;;8.90;5.10;;;;;;;6.41;32.21;100796.73;104753;1258;60308;-58
2024/01/11 13:31:41;;;;;;;6.80;4.60;;;;;;;6.43;32.22;100784.21;105303;1252;60428;-60
2024/01/11 13:34:09;;;;;;;7.20;4.40;;;;;;;6.45;32.23;100790.68;105218;1255;74196;-60
2024/01/11 13:36:36;;;;;;;6.50;4.40;;;;;;;6.46;32.18;100787.55;105484;1257;74375;-60
2024/01/11 13:39:03;;;;;;;6.30;4.50;;;;;;;6.46;32.21;100782.15;105238;1259;73469;-60
2024/01/11 13:41:30;;;;;;;8.60;4.40;;;;;;;6.45;32.21;100779.36;105051;1257;60823;-59
2024/01/11 13:43:58;;;;;;;7.50;4.40;;;;;;;6.46;32.28;100775.54;105268;1257;60441;-56
2024/01/11 13:46:25;;;;;;;6.90;4.20;;;;;;;6.47;32.31;100776.40;105266;1261;74222;-59
2024/01/11 13:48:52;;;;;;;6.30;3.70;;;;;;;6.47;32.35;100773.80;105254;1257;73087;-59
2024/01/11 13:51:20;;;;;;;7.00;4.40;;;;;;;6.49;32.31;100772.07;105097;1252;73780;-58
2024/01/11 13:53:47;;;;;;;4.20;3.70;;;;;;;6.49;32.37;100767.89;105300;1254;60546;-59
2024/01/11 13:56:14;;;;;;;7.90;3.80;;;;;;;6.50;32.36;100759.35;105114;1264;61474;-62
2024/01/11 13:58:41;;;;;;;6.70;4.30;;;;;;;6.52;32.44;100753.45;104622;1260;73973;-57
2024/01/11 14:01:08;;;;;;;5.60;4.00;;;;;;;6.54;32.49;100749.63;105384;1255;72609;-61
2024/01/11 14:03:35;;;;;;;5.30;3.80;;;;;;;6.55;32.54;100749.80;104762;1262;72361;-61
2024/01/11 14:06:03;;;;;;;5.80;4.00;;;;;;;6.57;32.50;100743.91;105475;1265;60723;-63
2024/01/11 14:08:31;;;;;;;7.80;5.20;;;;;;;6.57;32.49;100742.34;104663;1254;60945;-62
2024/01/11 14:10:59;;;;;;;9.80;5.50;;;;;;;6.58;32.50;100747.05;105689;1254;72129;-63
2024/01/11 14:13:26;;;;;;;8.40;4.90;;;;;;;6.59;32.54;100744.45;105130;1257;72436;-66
2024/01/11 14:15:53;;;;;;;10.70;4.90;;;;;;;6.60;32.57;100734.17;105383;1259;72766;-62
2024/01/11 14:18:24;;;;;;;9.10;6.10;;;;;;;6.61;32.66;100732.61;109259;1253;58237;-60
2024/01/11 14:20:51;;;;;;;6.90;4.90;;;;;;;6.62;32.78;100728.44;108988;1254;60911;-61
2024/01/11 14:23:19;;;;;;;8.30;5.40;;;;;;;6.64;32.89;100728.11;108977;1253;73837;-61
2024/01/11 14:25:47;;;;;;;8.50;4.50;;;;;;;6.65;32.96;100725.50;109328;1253;72524;-61
2024/01/11 14:28:14;;;;;;;7.60;4.80;;;;;;;6.67;33.06;100718.20;109318;1254;72356;-62
2024/01/11 14:30:41;;;;;;;7.30;4.90;;;;;;;6.69;33.11;100720.13;109250;1253;59859;-62
2024/01/11 14:33:08;;;;;;;6.70;4.00;;;;;;;6.71;33.11;100715.25;109304;1252;60121;-60
2024/01/11 14:35:35;;;;;;;7.60;4.70;;;;;;;6.72;33.11;100706.36;109359;1254;74406;-61
2024/01/11 14:38:04;;;;;;;10.10;5.00;;;;;;;6.74;33.18;100704.83;109310;1253;72883;-61
2024/01/11 14:40:31;;;;;;;7.20;4.50;;;;;;;6.76;33.26;100700.82;109303;1253;72142;-62
2024/01/11 14:42:58;;;;;;;6.70;4.80;;;;;;;6.77;33.34;100694.38;107606;1256;60287;-63
2024/01/11 14:45:26;;;;;;;7.60;5.30;;;;;;;6.80;33.40;100695.10;105994;1257;61840;-62
2024/01/11 14:47:54;;;;;;;6.60;4.70;;;;;;;6.82;33.42;100695.28;108988;1254;74506;-62
2024/01/11 14:50:21;;;;;;;7.50;5.30;;;;;;;6.83;33.47;100692.86;109322;1256;72756;-63
2024/01/11 14:52:48;;;;;;;10.00;4.90;;;;;;;6.83;33.55;100686.58;109054;1254;72638;-62
2024/01/11 14:55:16;;;;;;;6.80;5.00;;;;;;;6.85;33.48;100687.98;109311;1253;58683;-61
2024/01/11 14:57:43;;;;;;;8.20;5.10;;;;;;;6.86;33.48;100677.88;109290;1254;60606;-64
2024/01/11 15:00:11;;;;;;;7.40;4.80;;;;;;;6.88;33.55;100679.79;105737;1257;71905;-61
2024/01/11 15:02:38;;;;;;;6.50;4.40;;;;;;;6.89;33.42;100679.45;109299;1253;71910;-61
2024/01/11 15:05:06;;;;;;;7.70;4.30;;;;;;;6.90;33.40;100665.34;109294;1254;73551;-62
2024/01/11 15:07:33;;;;;;;6.00;4.10;;;;;;;6.92;33.39;100665.69;108832;1254;60750;-61
2024/01/11 15:10:00;;;;;;;7.50;5.00;;;;;;;6.93;33.47;100672.85;108781;1256;59459;-60
2024/01/11 15:12:27;;;;;;;6.40;4.40;;;;;;;6.94;33.42;100660.14;105670;1260;73988;-61
2024/01/11 15:14:54;;;;;;;9.40;5.60;;;;;;;6.94;33.39;100658.23;105162;1257;72875;-60
2024/01/11 15:17:22;;;;;;;7.50;4.50;;;;;;;6.95;33.46;100651.25;107754;1254;72408;-60
2024/01/11 15:19:49;;;;;;;6.00;4.50;;;;;;;6.96;33.47;100648.63;105142;1257;60858;-57
2024/01/11 15:22:16;;;;;;;8.70;5.20;;;;;;;6.96;33.54;100644.28;105119;1255;60828;-57
2024/01/11 15:24:43;;;;;;;8.00;5.00;;;;;;;6.95;33.55;100640.95;104876;1260;75055;-58
2024/01/11 15:27:10;;;;;;;5.70;4.10;;;;;;;6.95;33.58;100632.77;106517;1254;72437;-57
2024/01/11 15:29:37;;;;;;;7.20;4.90;;;;;;;6.95;33.55;100632.06;106543;1255;73488;-56
2024/01/11 15:32:06;;;;;;;7.30;4.80;;;;;;;6.95;33.59;100632.77;109061;1254;60337;-57
2024/01/11 15:34:33;;;;;;;7.30;4.50;;;;;;;6.95;33.62;100633.63;109295;1253;60928;-57
2024/01/11 15:37:00;;;;;;;6.50;4.80;;;;;;;6.95;33.61;100627.53;109285;1254;73331;-57
2024/01/11 15:39:27;;;;;;;6.20;4.30;;;;;;;6.94;33.70;100632.76;105348;1261;72578;-56
2024/01/11 15:41:57;;;;;;;6.60;4.50;;;;;;;6.94;33.75;100629.27;105112;1257;72471;-56
2024/01/11 15:44:26;;;;;;;8.90;4.40;;;;;;;6.93;33.79;100629.61;105344;1257;60407;-59
2024/01/11 15:46:55;;;;;;;7.60;4.30;;;;;;;6.93;34.11;100620.70;105460;1257;60657;-58
2024/01/11 15:49:22;;;;;;;5.70;4.20;;;;;;;6.99;36.43;100614.63;105499;1253;72037;-60
2024/01/11 15:51:50;;;;;;;5.30;3.60;;;;;;;7.05;36.28;100632.45;105195;1257;72359;-60
2024/01/11 15:54:17;;;;;;;6.50;4.50;;;;;;;7.05;35.72;100627.91;105131;1255;71632;-59
2024/01/11 15:56:44;;;;;;;7.10;4.10;;;;;;;7.08;35.25;100621.83;105156;1254;60580;-62
2024/01/11 15:59:11;;;;;;;6.10;4.10;;;;;;;7.11;34.94;100619.05;105390;1253;60521;-61
2024/01/11 16:01:39;;;;;;;6.70;4.50;;;;;;;7.12;34.72;100622.20;105262;1255;74761;-60
2024/01/11 16:04:22;;;;;;;7.80;4.30;;;;;;;7.13;34.57;100634.42;105237;1253;72519;-58
2024/01/11 16:06:49;;;;;;;5.00;3.70;;;;;;;7.14;34.47;100622.89;105264;1260;72308;-57
2024/01/11 16:09:17;;;;;;;5.50;3.90;;;;;;;7.16;34.38;100613.66;105022;1254;60528;-59
2024/01/11 16:11:45;;;;;;;6.90;4.50;;;;;;;7.18;34.34;100616.46;105517;1253;60604;-56
2024/01/11 16:14:12;;;;;;;5.50;3.80;;;;;;;7.19;34.29;100607.74;105469;1257;74877;-59
2024/01/11 16:16:39;;;;;;;7.10;5.00;;;;;;;7.20;34.29;100606.53;104859;1254;72269;-58
2024/01/11 16:19:07;;;;;;;6.80;4.20;;;;;;;7.18;34.28;100601.64;105161;1254;72474;-58
2024/01/11 16:21:34;;;;;;;5.60;3.50;;;;;;;7.16;34.39;100609.30;105376;1253;60561;-58
2024/01/11 16:24:03;;;;;;;6.00;4.30;;;;;;;7.16;34.38;100612.44;105437;1257;60457;-58
2024/01/11 16:26:31;;;;;;;8.60;4.20;;;;;;;7.14;34.43;100604.40;105659;1254;73640;-58
2024/01/11 16:28:58;;;;;;;6.40;3.70;;;;;;;7.12;34.47;100600.55;105485;1254;73453;-57
2024/01/11 16:31:25;;;;;;;6.20;4.10;;;;;;;7.09;34.53;100590.80;105445;1254;72087;-56
2024/01/11 16:33:52;;;;;;;6.80;4.40;;;;;;;7.07;34.72;100587.29;105459;1255;60537;-60
2024/01/11 16:36:20;;;;;;;6.10;4.50;;;;;;;7.05;34.84;100586.05;105264;1260;61279;-59
2024/01/11 16:38:47;;;;;;;5.40;4.10;;;;;;;7.04;34.93;100583.10;105475;1256;73732;-57
2024/01/11 16:41:14;;;;;;;6.60;4.60;;;;;;;7.04;34.97;100585.54;104932;1255;71906;-58
2024/01/11 16:43:44;;;;;;;6.20;4.00;;;;;;;7.04;35.09;100587.98;105311;1254;72582;-56
2024/01/11 16:46:20;;;;;;;7.60;4.80;;;;;;;7.04;35.15;100586.06;105155;1257;61386;-58
2024/01/11 16:48:50;;;;;;;5.00;3.60;;;;;;;7.04;35.28;100589.90;105164;1255;61841;-56
2024/01/11 16:51:19;;;;;;;6.70;4.70;;;;;;;7.03;35.37;100592.50;105299;1254;73774;-59
2024/01/11 16:53:46;;;;;;;8.40;4.60;;;;;;;7.03;35.48;100593.90;105207;1254;73135;-60
2024/01/11 16:56:13;;;;;;;7.00;4.70;;;;;;;7.02;35.57;100601.23;105397;1254;72206;-58
2024/01/11 16:58:41;;;;;;;7.70;5.10;;;;;;;7.01;35.72;100604.36;105205;1254;60481;-61
2024/01/11 17:01:11;;;;;;;5.90;4.40;;;;;;;7.01;35.83;100605.59;105307;1257;60393;-62
2024/01/11 17:03:38;;;;;;;8.40;5.10;;;;;;;7.01;35.89;100604.19;105207;1257;75045;-62
2024/01/11 17:06:05;;;;;;;7.00;5.20;;;;;;;7.01;35.97;100602.62;104728;1262;73320;-64
2024/01/11 17:08:33;;;;;;;5.70;4.00;;;;;;;7.01;36.07;100602.27;105119;1254;73929;-62
2024/01/11 17:11:00;;;;;;;7.20;5.50;;;;;;;7.00;36.16;100601.20;105406;1253;60519;-60
2024/01/11 17:13:28;;;;;;;7.10;4.90;;;;;;;7.00;36.18;100602.80;105314;1254;60413;-60
2024/01/11 17:15:55;;;;;;;7.50;5.30;;;;;;;7.00;36.25;100598.61;105397;1257;73852;-61
2024/01/11 17:18:24;;;;;;;6.60;4.30;;;;;;;6.99;36.34;100596.86;105535;1256;74137;-60
2024/01/11 17:20:51;;;;;;;6.80;4.70;;;;;;;6.99;36.43;100599.13;105321;1254;73667;-61
2024/01/11 17:23:18;;;;;;;6.60;4.50;;;;;;;6.99;36.57;100602.08;105330;1256;60515;-59
2024/01/11 17:25:47;;;;;;;13.00;4.60;;;;;;;6.98;36.42;100603.30;105192;1254;60419;-61
2024/01/11 17:28:14;;;;;;;6.80;4.50;;;;;;;6.96;36.45;100603.47;105446;1257;74027;-59
2024/01/11 17:30:42;;;;;;;5.90;3.80;;;;;;;6.94;36.45;100608.86;105344;1257;71812;-60
2024/01/11 17:33:09;;;;;;;8.90;4.90;;;;;;;6.93;36.53;100610.95;105271;1257;73028;-61
2024/01/11 17:35:37;;;;;;;4.80;3.60;;;;;;;6.92;36.43;100604.85;105501;1253;60453;-59
2024/01/11 17:38:04;;;;;;;6.80;4.00;;;;;;;6.91;36.41;100604.48;105455;1257;61207;-59
2024/01/11 17:40:33;;;;;;;5.80;3.90;;;;;;;6.89;36.48;100602.92;105405;1257;74418;-58
2024/01/11 17:43:02;;;;;;;5.80;4.00;;;;;;;6.88;36.59;100604.13;105052;1260;72614;-58
2024/01/11 17:45:29;;;;;;;6.50;4.00;;;;;;;6.87;36.67;100598.02;105342;1253;72249;-61
2024/01/11 17:47:56;;;;;;;6.90;4.60;;;;;;;6.87;36.71;100590.86;105342;1253;60540;-61
2024/01/11 17:50:24;;;;;;;6.30;3.70;;;;;;;6.86;36.81;100579.89;105303;1254;60546;-59
2024/01/11 17:52:51;;;;;;;5.20;3.80;;;;;;;6.86;36.84;100591.92;105322;1254;72536;-59
2024/01/11 17:55:20;;;;;;;6.90;4.10;;;;;;;6.86;36.86;100587.91;105375;1256;73905;-60
2024/01/11 17:57:47;;;;;;;22.20;5.10;;;;;;;6.86;36.83;100589.13;105118;1261;73807;-58
2024/01/11 18:00:15;;;;;;;9.20;4.40;;;;;;;6.86;36.87;100587.21;105123;1258;60930;-61
2024/01/11 18:02:43;;;;;;;11.90;4.60;;;;;;;6.86;36.95;100577.61;105314;1258;61297;-58
2024/01/11 18:05:10;;;;;;;7.10;3.90;;;;;;;6.86;37.07;100587.02;105383;1257;73176;-57
2024/01/11 18:07:38;;;;;;;6.70;4.30;;;;;;;6.86;37.15;100571.86;105466;1255;75287;-59
2024/01/11 18:10:05;;;;;;;6.20;4.60;;;;;;;6.86;37.15;100577.09;105027;1259;71853;-59
2024/01/11 18:12:32;;;;;;;9.10;4.20;;;;;;;6.85;37.18;100573.77;105320;1257;60547;-58
2024/01/11 18:15:01;;;;;;;9.90;4.30;;;;;;;6.86;37.27;100579.19;105090;1259;60506;-61
2024/01/11 18:17:28;;;;;;;5.50;3.70;;;;;;;6.84;37.30;100572.38;105282;1257;74332;-55
2024/01/11 18:19:56;;;;;;;7.40;4.50;;;;;;;6.83;37.36;100574.13;105406;1254;73436;-56
2024/01/11 18:22:25;;;;;;;7.80;4.70;;;;;;;6.83;37.55;100573.61;105312;1253;73710;-58
2024/01/11 18:24:53;;;;;;;8.90;5.00;;;;;;;6.81;37.64;100578.65;105314;1259;60457;-57
2024/01/11 18:27:20;;;;;;;6.70;4.20;;;;;;;6.80;37.77;100577.41;105290;1255;60532;-57
2024/01/11 18:29:47;;;;;;;8.50;4.50;;;;;;;6.78;37.90;100563.10;105146;1261;74597;-56
2024/01/11 18:32:15;;;;;;;7.00;4.60;;;;;;;6.78;37.99;100571.82;105478;1255;72743;-56
2024/01/11 18:34:42;;;;;;;8.10;4.70;;;;;;;6.78;38.08;100580.36;105274;1254;72432;-57
2024/01/11 18:37:09;;;;;;;7.00;4.00;;;;;;;6.76;38.16;100571.47;105323;1253;60598;-56
2024/01/11 18:39:37;;;;;;;7.90;5.00;;;;;;;6.75;38.28;100574.77;105263;1253;60533;-57
2024/01/11 18:42:06;;;;;;;6.80;4.90;;;;;;;6.75;39.78;100571.99;105204;1260;74194;-56
2024/01/11 18:44:34;;;;;;;7.70;5.10;;;;;;;6.77;41.29;100560.83;105330;1257;73635;-57
2024/01/11 18:47:02;;;;;;;9.80;5.00;;;;;;;6.78;40.86;100568.86;105304;1254;72632;-56
2024/01/11 18:49:29;;;;;;;8.30;4.40;;;;;;;6.80;40.34;100562.77;105323;1253;60481;-56
2024/01/11 18:51:57;;;;;;;7.60;4.20;;;;;;;6.80;39.94;100561.20;105433;1257;60406;-57
2024/01/11 18:54:24;;;;;;;6.00;3.90;;;;;;;6.79;39.69;100560.14;105309;1257;73597;-57
2024/01/11 18:56:51;;;;;;;6.10;4.50;;;;;;;6.78;39.52;100559.10;105298;1253;72788;-56
2024/01/11 18:59:18;;;;;;;10.30;4.90;;;;;;;6.77;39.44;100559.79;105422;1254;73860;-56
2024/01/11 19:01:47;;;;;;;7.20;4.70;;;;;;;6.78;39.37;100569.73;104794;1253;60625;-56
2024/01/11 19:04:14;;;;;;;8.50;4.90;;;;;;;6.77;39.30;100579.84;105479;1254;60579;-55
2024/01/11 19:06:44;;;;;;;8.20;4.50;;;;;;;6.76;39.39;100577.22;105309;1257;75398;-56
2024/01/11 19:09:13;;;;;;;9.90;4.60;;;;;;;6.77;39.46;100567.11;105392;1253;72698;-56
2024/01/11 19:11:40;;;;;;;8.70;5.00;;;;;;;6.78;39.39;100562.94;105125;1254;74597;-56
2024/01/11 19:14:09;;;;;;;7.10;5.30;;;;;;;6.79;39.31;100561.38;105309;1253;60708;-56
2024/01/11 19:16:37;;;;;;;8.80;4.60;;;;;;;6.80;39.38;100561.88;105261;1252;60541;-57
2024/01/11 19:19:04;;;;;;;8.30;5.00;;;;;;;6.78;39.37;100566.25;104616;1263;73558;-54
2024/01/11 19:21:32;;;;;;;7.60;4.60;;;;;;;6.78;39.37;100566.42;104702;1260;72269;-55
2024/01/11 19:23:59;;;;;;;6.20;4.90;;;;;;;6.77;39.42;100557.35;105070;1253;71857;-56
2024/01/11 19:26:27;;;;;;;9.00;4.90;;;;;;;6.76;39.59;100554.56;104873;1254;60499;-55
2024/01/11 19:28:57;;;;;;;6.90;4.70;;;;;;;6.76;39.62;100556.48;104672;1262;60351;-56
2024/01/11 19:31:24;;;;;;;8.10;4.40;;;;;;;6.73;39.73;100550.55;105105;1253;73957;-56
2024/01/11 19:33:51;;;;;;;7.90;5.20;;;;;;;6.72;39.82;100544.08;105085;1253;73537;-56
2024/01/11 19:36:18;;;;;;;9.80;5.10;;;;;;;6.70;39.89;100556.27;104795;1253;73087;-56
2024/01/11 19:38:45;;;;;;;6.30;4.20;;;;;;;6.67;40.06;100557.14;105121;1253;60980;-57
2024/01/11 19:41:20;;;;;;;8.50;4.80;;;;;;;6.66;40.15;100555.55;104824;1254;62271;-55
2024/01/11 19:43:48;;;;;;;7.80;5.20;;;;;;;6.66;40.42;100571.23;105072;1253;72787;-55
2024/01/11 19:46:18;;;;;;;8.00;5.20;;;;;;;6.63;40.60;100561.81;104944;1256;73354;-56
2024/01/11 19:48:47;;;;;;;8.30;5.10;;;;;;;6.61;40.75;100563.20;104726;1256;72183;-56
2024/01/11 19:51:14;;;;;;;10.70;5.40;;;;;;;6.60;40.95;100555.17;104980;1257;60515;-56
2024/01/11 19:53:41;;;;;;;7.20;5.00;;;;;;;6.59;41.17;100563.02;105470;1255;61564;-56
2024/01/11 19:56:18;;;;;;;7.90;5.40;;;;;;;6.59;41.32;100553.95;104849;1254;73334;-56
2024/01/11 19:58:46;;;;;;;9.70;5.30;;;;;;;6.58;41.53;100557.44;105007;1253;74649;-55
2024/01/11 20:01:13;;;;;;;9.90;5.70;;;;;;;6.56;41.62;100562.14;106483;1254;72976;-57
2024/01/11 20:03:42;;;;;;;9.10;5.70;;;;;;;6.54;41.77;100563.33;104994;1255;60376;-57
2024/01/11 20:06:10;;;;;;;7.70;5.60;;;;;;;6.51;41.97;100564.54;105507;1254;61396;-56
2024/01/11 20:08:37;;;;;;;8.90;4.70;;;;;;;6.51;41.99;100567.67;105366;1254;74005;-57
2024/01/11 20:11:08;;;;;;;9.50;5.00;;;;;;;6.54;42.17;100563.67;105246;1253;72755;-56
2024/01/11 20:13:35;;;;;;;7.30;5.20;;;;;;;6.55;42.30;100564.39;105276;1253;72844;-56
2024/01/11 20:16:02;;;;;;;7.20;5.20;;;;;;;6.55;42.34;100562.83;105398;1253;60605;-55
2024/01/11 20:18:29;;;;;;;8.50;4.90;;;;;;;6.55;42.48;100563.52;105174;1253;60423;-56
2024/01/11 20:20:57;;;;;;;8.30;5.30;;;;;;;6.55;42.45;100565.25;105172;1253;74370;-55
2024/01/11 20:23:25;;;;;;;10.70;5.70;;;;;;;6.54;42.58;100564.90;105174;1254;74336;-55
2024/01/11 20:25:53;;;;;;;8.50;5.90;;;;;;;6.54;42.80;100562.81;104429;1258;73759;-55
2024/01/11 20:28:20;;;;;;;8.50;5.70;;;;;;;6.55;42.78;100562.47;105336;1253;60426;-57
2024/01/11 20:30:49;;;;;;;8.70;5.90;;;;;;;6.56;42.86;100563.70;105154;1254;60354;-57
2024/01/11 20:33:16;;;;;;;7.90;5.80;;;;;;;6.56;42.93;100566.66;105448;1256;74109;-57